createdAt,value
2017-11-18T00:01:41.271Z,76.81
2017-11-18T00:04:07.673Z,77.03
2017-11-18T00:06:34.240Z,76.75
2017-11-18T00:09:00.598Z,76.82
2017-11-18T00:11:26.946Z,76.96
2017-11-18T00:13:53.334Z,77.39
2017-11-18T00:16:19.689Z,76.95
2017-11-18T00:18:46.053Z,76.76
2017-11-18T00:21:12.466Z,75.93
2017-11-18T00:23:38.816Z,76.85
2017-11-18T00:26:05.189Z,77.12
2017-11-18T00:28:31.618Z,77.24
2017-11-18T00:30:57.976Z,76.70
2017-11-18T00:33:24.411Z,76.78
2017-11-18T00:35:50.793Z,77.32
2017-11-18T00:38:17.149Z,77.31
2017-11-18T00:40:43.510Z,77.07
2017-11-18T00:43:09.913Z,76.43
2017-11-18T00:45:36.289Z,76.92
2017-11-18T00:48:02.702Z,77.39
2017-11-18T00:50:29.136Z,77.46
2017-11-18T00:52:55.503Z,77.31
2017-11-18T00:55:21.850Z,77.39
2017-11-18T00:57:48.340Z,77.38
2017-11-18T01:00:14.699Z,77.17
2017-11-18T01:02:41.200Z,76.66
2017-11-18T01:05:07.661Z,77.08
2017-11-18T01:07:34.065Z,76.82
2017-11-18T01:10:00.529Z,77.47
2017-11-18T01:12:27.042Z,77.31
2017-11-18T01:14:53.402Z,77.18
2017-11-18T01:17:19.753Z,77.03
2017-11-18T01:19:46.235Z,77.15
2017-11-18T01:22:12.590Z,77.03
2017-11-18T01:24:39.100Z,77.22
2017-11-18T01:27:05.634Z,77.23
2017-11-18T01:29:31.993Z,77.87
2017-11-18T01:31:58.357Z,77.97
2017-11-18T01:34:24.762Z,78.17
2017-11-18T01:36:51.193Z,77.33
2017-11-18T01:39:17.697Z,77.93
2017-11-18T01:41:44.242Z,77.78
2017-11-18T01:44:10.617Z,77.70
2017-11-18T01:46:37.333Z,77.84
2017-11-18T01:49:03.845Z,78.15
2017-11-18T01:51:30.338Z,78.35
2017-11-18T01:53:56.782Z,77.78
2017-11-18T01:56:23.284Z,77.36
2017-11-18T01:58:49.702Z,77.18
2017-11-18T02:01:16.170Z,77.35
2017-11-18T02:03:42.742Z,77.28
2017-11-18T02:06:09.209Z,77.61
2017-11-18T02:08:35.654Z,77.94
2017-11-18T02:11:02.168Z,77.80
2017-11-18T02:13:28.577Z,78.11
2017-11-18T02:15:54.990Z,78.02
2017-11-18T02:18:21.454Z,77.99
2017-11-18T02:20:48.193Z,77.45
2017-11-18T02:23:14.647Z,77.67
2017-11-18T02:25:41.174Z,78.03
2017-11-18T02:28:07.726Z,78.11
2017-11-18T02:30:34.155Z,77.96
2017-11-18T02:33:00.690Z,77.91
2017-11-18T02:35:27.214Z,78.36
2017-11-18T02:37:53.705Z,78.57
2017-11-18T02:40:20.198Z,78.54
2017-11-18T02:42:46.649Z,78.01
2017-11-18T02:45:13.240Z,78.04
2017-11-18T02:47:39.752Z,77.78
2017-11-18T02:50:06.210Z,77.78
2017-11-18T02:52:32.696Z,77.96
2017-11-18T02:54:59.177Z,78.39
2017-11-18T02:57:25.718Z,78.11
2017-11-18T02:59:52.278Z,78.08
2017-11-18T03:02:18.758Z,78.17
2017-11-18T03:04:45.321Z,78.09
2017-11-18T03:07:11.798Z,78.17
2017-11-18T03:09:38.359Z,78.20
2017-11-18T03:12:04.806Z,78.33
2017-11-18T03:14:31.259Z,78.33
2017-11-18T03:16:57.734Z,78.77
2017-11-18T03:19:24.127Z,78.51
2017-11-18T03:21:50.557Z,78.45
2017-11-18T03:24:17.094Z,78.24
2017-11-18T03:26:43.457Z,78.42
2017-11-18T03:29:09.829Z,78.70
2017-11-18T03:31:36.258Z,78.74
2017-11-18T03:34:02.699Z,78.66
2017-11-18T03:36:29.087Z,78.76
2017-11-18T03:38:55.520Z,78.52
2017-11-18T03:41:21.937Z,78.30
2017-11-18T03:43:48.304Z,78.29
2017-11-18T03:46:14.762Z,78.36
2017-11-18T03:48:41.162Z,78.47
2017-11-18T03:51:07.552Z,78.44
2017-11-18T03:53:33.969Z,78.71
2017-11-18T03:56:00.341Z,78.93
2017-11-18T03:58:26.709Z,78.99
2017-11-18T04:00:57.042Z,79.14
2017-11-18T04:03:23.490Z,78.92
2017-11-18T04:05:49.890Z,78.64
2017-11-18T04:08:16.382Z,78.71
2017-11-18T04:10:42.773Z,78.36
2017-11-18T04:13:09.205Z,78.21
2017-11-18T04:15:35.702Z,78.98
2017-11-18T04:18:02.106Z,79.16
2017-11-18T04:20:28.521Z,78.94
2017-11-18T04:22:54.938Z,78.21
2017-11-18T04:25:21.337Z,78.56
2017-11-18T04:27:47.839Z,78.34
2017-11-18T04:30:14.273Z,78.32
2017-11-18T04:32:40.679Z,78.97
2017-11-18T04:35:07.127Z,79.26
2017-11-18T04:37:33.558Z,78.95
2017-11-18T04:39:59.957Z,78.52
2017-11-18T04:42:26.357Z,77.79
2017-11-18T04:44:52.768Z,77.58
2017-11-18T04:47:19.178Z,77.56
2017-11-18T04:49:45.593Z,77.60
2017-11-18T04:52:12.017Z,77.78
2017-11-18T04:54:38.448Z,78.08
2017-11-18T04:57:04.834Z,78.43
2017-11-18T04:59:31.290Z,78.58
2017-11-18T05:01:57.674Z,78.68
2017-11-18T05:04:24.092Z,78.53
2017-11-18T05:06:50.540Z,78.29
2017-11-18T05:09:17.000Z,78.20
2017-11-18T05:11:43.359Z,78.46
2017-11-18T05:14:09.825Z,78.23
2017-11-18T05:16:36.205Z,77.91
2017-11-18T05:19:02.605Z,78.14
2017-11-18T05:21:29.025Z,78.32
2017-11-18T05:23:55.414Z,77.69
2017-11-18T05:26:21.851Z,77.48
2017-11-18T05:28:48.322Z,77.44
2017-11-18T05:31:14.713Z,77.52
2017-11-18T05:33:41.080Z,77.72
2017-11-18T05:36:07.538Z,77.99
2017-11-18T05:38:34.002Z,78.24
2017-11-18T05:41:00.365Z,78.42
2017-11-18T05:43:26.862Z,78.92
2017-11-18T05:45:53.282Z,79.08
2017-11-18T05:48:19.694Z,79.14
2017-11-18T05:50:46.160Z,79.12
2017-11-18T05:53:12.542Z,79.34
2017-11-18T05:55:38.908Z,79.41
2017-11-18T05:58:05.357Z,79.05
2017-11-18T06:00:31.797Z,79.21
2017-11-18T06:02:58.336Z,79.04
2017-11-18T06:05:24.862Z,78.89
2017-11-18T06:07:51.226Z,78.65
2017-11-18T06:10:17.603Z,78.64
2017-11-18T06:12:44.021Z,78.75
2017-11-18T06:15:10.503Z,78.59
2017-11-18T06:17:36.878Z,78.97
2017-11-18T06:20:03.278Z,79.48
2017-11-18T06:22:29.636Z,79.62
2017-11-18T06:24:55.998Z,79.65
2017-11-18T06:27:22.389Z,79.37
2017-11-18T06:29:48.762Z,79.05
2017-11-18T06:32:15.145Z,78.96
2017-11-18T06:34:41.557Z,78.79
2017-11-18T06:37:07.910Z,78.85
2017-11-18T06:39:34.287Z,78.79
2017-11-18T06:42:00.697Z,79.07
2017-11-18T06:44:27.055Z,78.75
2017-11-18T06:46:53.461Z,78.77
2017-11-18T06:49:19.865Z,78.49
2017-11-18T06:51:46.200Z,78.74
2017-11-18T06:54:12.604Z,78.75
2017-11-18T06:56:39.069Z,78.89
2017-11-18T06:59:05.499Z,79.47
2017-11-18T07:01:31.853Z,79.49
2017-11-18T07:03:58.253Z,79.57
2017-11-18T07:06:24.618Z,79.43
2017-11-18T07:08:51.054Z,79.49
2017-11-18T07:11:17.451Z,79.64
2017-11-18T07:13:43.802Z,79.56
2017-11-18T07:16:10.205Z,79.34
2017-11-18T07:18:36.645Z,79.27
2017-11-18T07:21:03.045Z,79.39
2017-11-18T07:23:29.427Z,79.75
2017-11-18T07:25:55.828Z,79.87
2017-11-18T07:28:22.185Z,79.67
2017-11-18T07:30:48.540Z,79.50
2017-11-18T07:33:14.934Z,79.35
2017-11-18T07:35:41.286Z,79.20
2017-11-18T07:38:07.722Z,79.08
2017-11-18T07:40:34.174Z,78.84
2017-11-18T07:43:00.535Z,78.78
2017-11-18T07:45:26.921Z,78.69
2017-11-18T07:47:53.316Z,78.71
2017-11-18T07:50:19.801Z,78.79
2017-11-18T07:52:46.208Z,79.06
2017-11-18T07:55:12.670Z,79.12
2017-11-18T07:57:39.774Z,79.27
2017-11-18T08:00:06.178Z,79.48
2017-11-18T08:02:32.581Z,79.39
2017-11-18T08:04:59.073Z,79.75
2017-11-18T08:07:25.540Z,80.24
2017-11-18T08:09:52.037Z,80.59
2017-11-18T08:12:18.525Z,80.91
2017-11-18T08:14:44.946Z,81.09
2017-11-18T08:17:11.481Z,80.93
2017-11-18T08:19:37.949Z,80.55
2017-11-18T08:22:04.382Z,80.38
2017-11-18T08:24:30.874Z,80.28
2017-11-18T08:26:57.269Z,80.48
2017-11-18T08:29:23.666Z,80.83
2017-11-18T08:31:50.149Z,80.75
2017-11-18T08:34:16.543Z,80.91
2017-11-18T08:36:42.928Z,80.79
2017-11-18T08:39:09.421Z,80.58
2017-11-18T08:41:35.874Z,80.43
2017-11-18T08:44:02.246Z,80.28
2017-11-18T08:46:28.669Z,80.29
2017-11-18T08:48:55.070Z,80.34
2017-11-18T08:51:21.428Z,80.49
2017-11-18T08:53:47.814Z,80.15
2017-11-18T08:56:14.225Z,79.99
2017-11-18T08:58:40.649Z,80.01
2017-11-18T09:01:07.085Z,79.70
2017-11-18T09:03:33.470Z,80.01
2017-11-18T09:05:59.827Z,80.04
2017-11-18T09:08:26.306Z,79.95
2017-11-18T09:10:52.717Z,80.00
2017-11-18T09:13:19.200Z,79.89
2017-11-18T09:15:45.650Z,80.04
2017-11-18T09:18:12.578Z,80.34
2017-11-18T09:20:38.977Z,80.62
2017-11-18T09:23:05.418Z,80.47
2017-11-18T09:25:31.878Z,80.14
2017-11-18T09:27:58.246Z,80.02
2017-11-18T09:30:24.743Z,80.17
2017-11-18T09:32:51.099Z,80.29
2017-11-18T09:35:17.459Z,80.12
2017-11-18T09:37:43.941Z,79.84
2017-11-18T09:40:10.308Z,79.69
2017-11-18T09:42:36.669Z,79.60
2017-11-18T09:45:03.099Z,79.89
2017-11-18T09:47:29.445Z,80.01
2017-11-18T09:49:55.903Z,80.10
2017-11-18T09:52:22.311Z,80.32
2017-11-18T09:54:48.681Z,80.54
2017-11-18T09:57:15.089Z,80.54
2017-11-18T09:59:41.483Z,80.71
2017-11-18T10:02:07.838Z,80.39
2017-11-18T10:04:34.202Z,80.24
2017-11-18T10:07:01.574Z,80.17
2017-11-18T10:09:27.966Z,80.04
2017-11-18T10:11:54.518Z,80.01
2017-11-18T10:14:21.125Z,80.22
2017-11-18T10:16:47.487Z,80.17
2017-11-18T10:19:13.973Z,80.40
2017-11-18T10:21:40.406Z,80.45
2017-11-18T10:24:06.774Z,80.64
2017-11-18T10:26:33.157Z,80.31
2017-11-18T10:28:59.606Z,80.17
2017-11-18T10:31:26.002Z,80.10
2017-11-18T10:33:52.451Z,80.17
2017-11-18T10:36:18.858Z,80.58
2017-11-18T10:38:45.213Z,80.37
2017-11-18T10:41:11.611Z,80.40
2017-11-18T10:43:38.006Z,80.79
2017-11-18T10:46:04.429Z,80.22
2017-11-18T10:48:30.872Z,79.54
2017-11-18T10:50:57.353Z,79.52
2017-11-18T10:53:23.782Z,79.35
2017-11-18T10:55:50.190Z,79.96
2017-11-18T11:11:22.165Z,80.42
2017-11-18T11:13:48.577Z,79.39
2017-11-18T11:16:15.019Z,79.40
2017-11-18T11:18:41.566Z,79.89
2017-11-18T11:21:07.961Z,80.37
2017-11-18T11:23:34.368Z,80.07
2017-11-18T11:26:00.876Z,79.98
2017-11-18T11:28:27.292Z,80.01
2017-11-18T11:30:53.682Z,80.03
2017-11-18T11:33:20.133Z,79.83
2017-11-18T11:35:46.499Z,79.70
2017-11-18T11:38:12.861Z,79.31
2017-11-18T11:40:39.337Z,79.31
2017-11-18T11:43:05.738Z,79.50
2017-11-18T11:45:32.170Z,79.63
2017-11-18T11:47:58.641Z,79.80
2017-11-18T11:50:25.047Z,79.72
2017-11-18T11:52:51.434Z,79.92
2017-11-18T11:55:17.939Z,79.67
2017-11-18T11:57:44.331Z,79.58
2017-11-18T12:00:10.818Z,79.56
2017-11-18T12:02:37.165Z,79.76
2017-11-18T12:05:03.596Z,79.87
2017-11-18T12:07:29.985Z,79.66
2017-11-18T12:09:56.415Z,79.06
2017-11-18T12:12:22.895Z,79.19
2017-11-18T12:14:49.301Z,79.19
2017-11-18T12:17:15.745Z,79.34
2017-11-18T12:19:42.141Z,79.61
2017-11-18T12:22:08.586Z,78.98
2017-11-18T12:24:35.270Z,78.21
2017-11-18T12:27:01.665Z,78.88
2017-11-18T12:29:28.114Z,78.37
2017-11-18T12:31:54.538Z,78.33
2017-11-18T12:34:20.963Z,78.62
2017-11-18T12:36:47.432Z,78.80
2017-11-18T12:39:13.967Z,78.16
2017-11-18T12:41:40.357Z,77.26
2017-11-18T12:44:07.022Z,77.82
2017-11-18T12:46:33.481Z,78.26
2017-11-18T12:49:00.498Z,78.14
2017-11-18T12:51:27.034Z,78.60
2017-11-18T12:53:53.496Z,78.96
2017-11-18T12:56:20.323Z,79.18
2017-11-18T12:58:46.689Z,79.11
2017-11-18T13:01:13.198Z,79.15
2017-11-18T13:03:39.580Z,79.28
2017-11-18T13:06:06.064Z,79.30
2017-11-18T13:08:32.500Z,79.27
2017-11-18T13:10:58.845Z,79.19
2017-11-18T13:13:25.186Z,78.99
2017-11-18T13:15:51.588Z,79.21
2017-11-18T13:18:17.958Z,79.62
2017-11-18T13:20:44.306Z,79.90
2017-11-18T13:23:10.686Z,80.06
2017-11-18T13:25:37.065Z,79.93
2017-11-18T13:28:03.581Z,80.18
2017-11-18T13:30:30.049Z,80.36
2017-11-18T13:32:56.522Z,80.48
2017-11-18T13:35:22.958Z,80.59
2017-11-18T13:37:49.369Z,80.65
2017-11-18T13:40:15.822Z,80.56
2017-11-18T13:42:42.219Z,80.81
2017-11-18T13:45:08.791Z,80.80
2017-11-18T13:47:35.152Z,80.65
2017-11-18T13:50:01.555Z,80.74
2017-11-18T13:52:27.989Z,80.60
2017-11-18T13:54:54.342Z,80.91
2017-11-18T13:57:20.722Z,81.05
2017-11-18T13:59:47.097Z,80.62
2017-11-18T14:02:13.445Z,79.65
2017-11-18T14:04:39.922Z,79.94
2017-11-18T14:07:06.399Z,79.10
2017-11-18T14:09:32.793Z,78.61
2017-11-18T14:11:59.221Z,78.85
2017-11-18T14:14:25.686Z,79.05
2017-11-18T14:16:52.114Z,78.75
2017-11-18T14:19:18.686Z,79.15
2017-11-18T14:21:45.148Z,78.81
2017-11-18T14:24:11.549Z,78.94
2017-11-18T14:26:37.961Z,77.93
2017-11-18T14:29:04.389Z,77.84
2017-11-18T14:31:31.559Z,77.84
2017-11-18T14:33:58.393Z,78.37
2017-11-18T14:36:24.918Z,77.17
2017-11-18T14:38:52.165Z,77.57
2017-11-18T14:41:18.686Z,78.16
2017-11-18T14:43:45.170Z,77.91
2017-11-18T14:46:11.595Z,78.69
2017-11-18T14:48:38.038Z,78.24
2017-11-18T14:51:04.538Z,78.94
2017-11-18T14:53:30.922Z,79.04
2017-11-18T14:55:57.638Z,79.12
2017-11-18T14:58:24.173Z,79.66
2017-11-18T15:00:50.657Z,79.56
2017-11-18T15:03:17.162Z,79.59
2017-11-18T15:05:43.722Z,79.80
2017-11-18T15:08:10.201Z,79.97
2017-11-18T15:10:36.719Z,80.21
2017-11-18T15:13:03.358Z,80.08
2017-11-18T15:15:30.590Z,80.29
2017-11-18T15:18:03.162Z,80.57
2017-11-18T15:20:35.858Z,80.79
2017-11-18T15:23:08.198Z,80.96
2017-11-18T15:25:40.641Z,80.65
2017-11-18T15:28:08.175Z,80.79
2017-11-18T15:30:40.814Z,80.82
2017-11-18T15:33:07.318Z,80.72
2017-11-18T15:35:35.790Z,80.62
2017-11-18T15:38:04.286Z,80.38
2017-11-18T15:40:30.823Z,80.51
2017-11-18T15:42:59.425Z,80.17
2017-11-18T15:45:26.849Z,80.16
2017-11-18T16:01:24.958Z,79.83
2017-11-18T16:03:52.458Z,79.87
2017-11-18T16:06:35.685Z,79.47
2017-11-18T16:09:02.216Z,79.38
2017-11-18T16:11:28.678Z,78.94
2017-11-18T16:13:55.179Z,78.96
2017-11-18T16:16:21.614Z,77.90
2017-11-18T16:18:48.067Z,77.33
2017-11-18T16:21:14.861Z,78.08
2017-11-18T16:23:41.297Z,78.16
2017-11-18T16:26:07.734Z,78.56
2017-11-18T16:28:34.226Z,79.05
2017-11-18T16:31:00.673Z,79.61
2017-11-18T16:33:27.130Z,79.65
2017-11-18T16:35:53.617Z,79.93
2017-11-18T16:38:20.074Z,80.00
2017-11-18T16:40:46.514Z,80.05
2017-11-18T16:43:12.998Z,80.13
2017-11-18T16:45:39.423Z,80.12
2017-11-18T16:48:05.917Z,79.60
2017-11-18T16:50:33.332Z,79.74
2017-11-18T16:52:59.770Z,79.77
2017-11-18T16:55:26.209Z,79.77
2017-11-18T16:57:52.653Z,80.05
2017-11-18T17:00:19.122Z,80.26
2017-11-18T17:02:45.558Z,80.12
2017-11-18T17:05:12.065Z,80.22
2017-11-18T17:07:39.378Z,80.08
2017-11-18T17:10:05.908Z,80.27
2017-11-18T17:12:34.605Z,80.06
2017-11-18T17:15:01.130Z,79.98
2017-11-18T17:17:27.578Z,79.99
2017-11-18T17:19:54.634Z,79.98
2017-11-18T17:22:21.074Z,79.82
2017-11-18T17:24:47.579Z,79.88
2017-11-18T17:27:14.017Z,79.61
2017-11-18T17:29:40.496Z,79.82
2017-11-18T17:32:06.966Z,79.69
2017-11-18T17:34:33.519Z,79.55
2017-11-18T17:37:00.970Z,79.67
2017-11-18T17:39:27.432Z,79.68
2017-11-18T17:41:53.953Z,79.77
2017-11-18T17:44:21.378Z,79.64
2017-11-18T17:46:47.830Z,79.74
2017-11-18T17:49:15.190Z,79.93
2017-11-18T17:51:41.650Z,80.27
2017-11-18T17:54:08.158Z,80.26
2017-11-18T17:56:34.698Z,80.17
2017-11-18T17:59:01.148Z,80.21
2017-11-18T18:01:27.602Z,79.87
2017-11-18T18:03:54.942Z,79.39
2017-11-18T18:06:22.845Z,78.94
2017-11-18T18:08:49.523Z,79.62
2017-11-18T18:11:15.993Z,79.80
2017-11-18T18:13:42.454Z,79.96
2017-11-18T18:16:09.262Z,80.00
2017-11-18T18:18:36.168Z,80.07
2017-11-18T18:21:03.049Z,80.02
2017-11-18T18:23:30.037Z,80.02
2017-11-18T18:25:56.493Z,79.76
2017-11-18T18:28:22.918Z,79.85
2017-11-18T18:30:49.346Z,80.17
2017-11-18T18:33:15.773Z,80.42
2017-11-18T18:35:43.267Z,80.14
2017-11-18T18:38:10.486Z,80.05
2017-11-18T18:40:36.917Z,80.12
2017-11-18T18:43:03.326Z,80.12
2017-11-18T18:45:29.730Z,79.96
2017-11-18T18:47:56.162Z,79.59
2017-11-18T18:50:22.576Z,80.09
2017-11-18T18:52:48.943Z,80.44
2017-11-18T18:55:15.381Z,80.30
2017-11-18T18:57:42.722Z,80.60
2017-11-18T19:00:09.186Z,80.53
2017-11-18T19:02:35.767Z,80.49
2017-11-18T19:05:02.269Z,80.70
2017-11-18T19:07:28.650Z,80.66
2017-11-18T19:09:55.110Z,80.56
2017-11-18T19:12:21.500Z,80.81
2017-11-18T19:14:47.987Z,80.73
2017-11-18T19:17:14.402Z,80.81
2017-11-18T19:19:40.954Z,80.68
2017-11-18T19:22:07.341Z,80.64
2017-11-18T19:24:33.823Z,80.65
2017-11-18T19:27:00.212Z,80.81
2017-11-18T19:29:26.610Z,80.59
2017-11-18T19:31:53.038Z,80.60
2017-11-18T19:34:19.487Z,80.56
2017-11-18T19:36:45.936Z,80.60
2017-11-18T19:39:12.399Z,80.39
2017-11-18T19:41:38.850Z,80.53
2017-11-18T19:44:05.244Z,80.77
2017-11-18T19:46:31.743Z,81.02
2017-11-18T19:48:58.118Z,80.62
2017-11-18T19:51:24.658Z,80.28
2017-11-18T19:53:51.177Z,80.10
2017-11-18T19:56:17.571Z,80.08
2017-11-18T19:58:43.945Z,79.50
2017-11-18T20:01:11.370Z,79.54
2017-11-18T20:03:37.889Z,79.68
2017-11-18T20:06:04.338Z,80.05
2017-11-18T20:08:30.926Z,79.47
2017-11-18T20:10:58.122Z,79.96
2017-11-18T20:13:24.580Z,79.45
2017-11-18T20:15:51.046Z,79.56
2017-11-18T20:18:17.486Z,79.43
2017-11-18T20:20:44.811Z,79.40
2017-11-18T20:23:12.163Z,79.28
2017-11-18T20:25:38.712Z,79.85
2017-11-18T20:28:06.026Z,79.67
2017-11-18T20:30:32.985Z,79.61
2017-11-18T20:32:59.345Z,79.39
2017-11-18T20:35:25.713Z,79.87
2017-11-18T20:37:52.130Z,79.76
2017-11-18T20:40:18.628Z,80.13
2017-11-18T20:42:44.998Z,80.19
2017-11-18T20:45:11.949Z,80.24
2017-11-18T20:47:39.237Z,80.10
2017-11-18T20:50:06.618Z,80.32
2017-11-18T20:52:33.034Z,80.56
2017-11-18T20:54:59.414Z,80.40
2017-11-18T20:57:25.769Z,80.24
2017-11-18T20:59:52.182Z,80.48
2017-11-18T21:02:18.525Z,80.49
2017-11-18T21:04:44.886Z,80.46
2017-11-18T21:07:12.066Z,80.31
2017-11-18T21:09:38.470Z,80.50
2017-11-18T21:12:04.820Z,80.67
2017-11-18T21:14:31.205Z,80.52
2017-11-18T21:16:57.569Z,80.51
2017-11-18T21:19:23.917Z,80.78
2017-11-18T21:21:50.685Z,80.50
2017-11-18T21:24:17.122Z,80.15
2017-11-18T21:26:43.468Z,80.16
2017-11-18T21:29:09.958Z,80.73
2017-11-18T21:31:36.322Z,80.58
2017-11-18T21:34:02.693Z,81.09
2017-11-18T21:36:29.156Z,81.09
2017-11-18T21:38:55.590Z,80.80
2017-11-18T21:41:22.022Z,80.82
2017-11-18T21:43:48.462Z,80.74
2017-11-18T21:46:14.837Z,80.51
2017-11-18T21:48:41.233Z,80.41
2017-11-18T21:51:07.637Z,79.49
2017-11-18T21:53:34.003Z,79.45
2017-11-18T21:56:00.366Z,79.94
2017-11-18T21:58:26.770Z,79.49
2017-11-18T22:00:53.159Z,79.82
2017-11-18T22:03:19.512Z,79.97
2017-11-18T22:05:45.926Z,79.83
2017-11-18T22:08:12.277Z,79.72
2017-11-18T22:10:38.638Z,79.71
2017-11-18T22:13:05.042Z,78.69
2017-11-18T22:15:31.442Z,78.88
2017-11-18T22:17:57.990Z,79.49
2017-11-18T22:20:24.469Z,79.42
2017-11-18T22:22:50.876Z,79.24
2017-11-18T22:25:17.259Z,79.43
2017-11-18T22:27:43.745Z,79.33
2017-11-18T22:30:10.157Z,79.24
2017-11-18T22:32:36.530Z,79.37
2017-11-18T22:35:02.917Z,79.28
2017-11-18T22:37:29.294Z,79.19
2017-11-18T22:39:55.629Z,79.39
2017-11-18T22:42:22.038Z,79.33
2017-11-18T22:44:48.382Z,79.49
2017-11-18T22:47:14.731Z,79.40
2017-11-18T22:49:41.106Z,79.44
2017-11-18T22:52:07.465Z,79.32
2017-11-18T22:54:33.817Z,79.49
2017-11-18T22:57:00.207Z,79.40
2017-11-18T22:59:26.660Z,79.48
2017-11-18T23:01:53.035Z,79.60
2017-11-18T23:04:19.418Z,79.78
2017-11-18T23:06:45.774Z,79.72
2017-11-18T23:09:12.138Z,79.71
2017-11-18T23:11:38.621Z,79.66
2017-11-18T23:14:05.156Z,79.34
2017-11-18T23:16:31.537Z,79.26
2017-11-18T23:18:57.930Z,79.11
2017-11-18T23:21:24.281Z,79.07
2017-11-18T23:23:50.705Z,79.00
2017-11-18T23:26:17.125Z,78.85
2017-11-18T23:28:43.477Z,78.91
2017-11-18T23:31:09.857Z,79.11
2017-11-18T23:33:36.246Z,79.10
2017-11-18T23:36:02.774Z,78.98
2017-11-18T23:38:29.182Z,78.58
2017-11-18T23:40:55.592Z,78.33
2017-11-18T23:43:21.974Z,78.25
2017-11-18T23:45:48.380Z,78.54
2017-11-18T23:48:14.783Z,78.63
2017-11-18T23:50:41.162Z,78.86
2017-11-18T23:53:07.617Z,79.14
2017-11-18T23:55:34.046Z,78.88
2017-11-18T23:58:00.546Z,79.00
